sensor_id;sensor_type;location;lat;lon;timestamp;pressure;altitude;pressure_sealevel;temperature;humidity
6899;BME280;3488;42.616;23.350;2023-06-24T00:02:23;64157.44;;;20.83;100.00
6899;BME280;3488;42.616;23.350;2023-06-24T00:04:51;64152.78;;;20.81;100.00
6899;BME280;3488;42.616;23.350;2023-06-24T00:07:19;64142.81;;;20.68;100.00
6899;BME280;3488;42.616;23.350;2023-06-24T00:09:48;64150.63;;;20.74;100.00
6899;BME280;3488;42.616;23.350;2023-06-24T00:12:15;64152.22;;;20.78;100.00
6899;BME280;3488;42.616;23.350;2023-06-24T00:14:45;64153.78;;;20.79;100.00
6899;BME280;3488;42.616;23.350;2023-06-24T00:17:12;64149.59;;;20.75;100.00
6899;BME280;3488;42.616;23.350;2023-06-24T00:19:39;64145.44;;;20.71;100.00
6899;BME280;3488;42.616;23.350;2023-06-24T00:22:07;64141.28;;;20.69;100.00
6899;BME280;3488;42.616;23.350;2023-06-24T00:24:35;64132.94;;;20.61;100.00
6899;BME280;3488;42.616;23.350;2023-06-24T00:27:02;64130.31;;;20.56;100.00
6899;BME280;3488;42.616;23.350;2023-06-24T00:29:29;64138.13;;;20.64;100.00
6899;BME280;3488;42.616;23.350;2023-06-24T00:31:56;64151.66;;;20.75;100.00
6899;BME280;3488;42.616;23.350;2023-06-24T00:34:23;64144.38;;;20.70;100.00
6899;BME280;3488;42.616;23.350;2023-06-24T00:36:50;64141.75;;;20.65;100.00
6899;BME280;3488;42.616;23.350;2023-06-24T00:39:17;64138.13;;;20.64;100.00
6899;BME280;3488;42.616;23.350;2023-06-24T00:41:46;64139.63;;;20.60;100.00
6899;BME280;3488;42.616;23.350;2023-06-24T00:44:13;64148.53;;;20.72;100.00
6899;BME280;3488;42.616;23.350;2023-06-24T00:46:40;64135.03;;;20.63;100.00
6899;BME280;3488;42.616;23.350;2023-06-24T00:49:08;64141.75;;;20.65;100.00
6899;BME280;3488;42.616;23.350;2023-06-24T00:51:35;64126.66;;;20.55;100.00
6899;BME280;3488;42.616;23.350;2023-06-24T00:54:02;64133.94;;;20.57;100.00
6899;BME280;3488;42.616;23.350;2023-06-24T00:56:31;64132.41;;;20.58;100.00
6899;BME280;3488;42.616;23.350;2023-06-24T00:59:02;64131.88;;;20.58;100.00
6899;BME280;3488;42.616;23.350;2023-06-24T01:01:30;64130.28;;;20.54;100.00
6899;BME280;3488;42.616;23.350;2023-06-24T01:03:59;64128.75;;;20.55;100.00
6899;BME280;3488;42.616;23.350;2023-06-24T01:06:28;64123.53;;;20.50;100.00
6899;BME280;3488;42.616;23.350;2023-06-24T01:08:56;64120.41;;;20.49;100.00
6899;BME280;3488;42.616;23.350;2023-06-24T01:11:23;64112.03;;;20.39;100.00
6899;BME280;3488;42.616;23.350;2023-06-24T01:13:50;64108.38;;;20.35;100.00
6899;BME280;3488;42.616;23.350;2023-06-24T01:16:26;64106.81;;;20.34;100.00
6899;BME280;3488;42.616;23.350;2023-06-24T01:19:00;64098.47;;;20.26;100.00
6899;BME280;3488;42.616;23.350;2023-06-24T01:21:41;64090.09;;;20.18;100.00
6899;BME280;3488;42.616;23.350;2023-06-24T01:24:21;64081.75;;;20.12;100.00
6899;BME280;3488;42.616;23.350;2023-06-24T01:27:15;64070.25;;;19.99;100.00
6899;BME280;3488;42.616;23.350;2023-06-24T01:33:10;64030.63;;;19.61;100.00
6899;BME280;3488;42.616;23.350;2023-06-24T01:35:42;64036.84;;;19.64;100.00
6899;BME280;3488;42.616;23.350;2023-06-24T01:38:18;64038.44;;;19.68;100.00
6899;BME280;3488;42.616;23.350;2023-06-24T01:40:50;64024.38;;;19.54;100.00
6899;BME280;3488;42.616;23.350;2023-06-24T01:43:19;64011.38;;;19.47;100.00
6899;BME280;3488;42.616;23.350;2023-06-24T01:45:51;64010.25;;;19.38;100.00
6899;BME280;3488;42.616;23.350;2023-06-24T01:48:24;64011.84;;;19.42;100.00
6899;BME280;3488;42.616;23.350;2023-06-24T01:50:58;64017.09;;;19.50;100.00
6899;BME280;3488;42.616;23.350;2023-06-24T01:53:27;64031.66;;;19.62;100.00
6899;BME280;3488;42.616;23.350;2023-06-24T01:55:55;64041.56;;;19.71;100.00
6899;BME280;3488;42.616;23.350;2023-06-24T01:58:24;64050.44;;;19.80;100.00
6899;BME280;3488;42.616;23.350;2023-06-24T02:00:52;64058.28;;;19.87;100.00
6899;BME280;3488;42.616;23.350;2023-06-24T02:03:21;64063.44;;;19.90;100.00
6899;BME280;3488;42.616;23.350;2023-06-24T02:05:50;64072.34;;;20.01;100.00
6899;BME280;3488;42.616;23.350;2023-06-24T02:08:20;64075.47;;;20.04;100.00
6899;BME280;3488;42.616;23.350;2023-06-24T02:10:49;64085.91;;;20.11;100.00
6899;BME280;3488;42.616;23.350;2023-06-24T02:13:18;64086.91;;;20.10;100.00
6899;BME280;3488;42.616;23.350;2023-06-24T02:15:47;64093.72;;;20.16;100.00
6899;BME280;3488;42.616;23.350;2023-06-24T02:18:15;64091.69;;;20.19;100.00
6899;BME280;3488;42.616;23.350;2023-06-24T02:20:46;64101.56;;;20.26;100.00
6899;BME280;3488;42.616;23.350;2023-06-24T02:23:15;64092.78;;;20.25;100.00
6899;BME280;3488;42.616;23.350;2023-06-24T02:25:42;64098.97;;;20.24;100.00
6899;BME280;3488;42.616;23.350;2023-06-24T02:28:10;64099.00;;;20.29;100.00
6899;BME280;3488;42.616;23.350;2023-06-24T02:30:38;64106.28;;;20.31;100.00
6899;BME280;3488;42.616;23.350;2023-06-24T02:33:05;64094.28;;;20.22;100.00
6899;BME280;3488;42.616;23.350;2023-06-24T02:35:33;64098.97;;;20.24;100.00
6899;BME280;3488;42.616;23.350;2023-06-24T02:38:01;64097.44;;;20.27;100.00
6899;BME280;3488;42.616;23.350;2023-06-24T02:40:30;64096.88;;;20.24;100.00
6899;BME280;3488;42.616;23.350;2023-06-24T02:42:59;64094.28;;;20.22;100.00
6899;BME280;3488;42.616;23.350;2023-06-24T02:45:26;64096.34;;;20.21;100.00
6899;BME280;3488;42.616;23.350;2023-06-24T02:47:55;64091.19;;;20.21;100.00
6899;BME280;3488;42.616;23.350;2023-06-24T02:50:23;64094.75;;;20.17;100.00
6899;BME280;3488;42.616;23.350;2023-06-24T02:52:51;64085.91;;;20.11;100.00
6899;BME280;3488;42.616;23.350;2023-06-24T02:55:21;64086.97;;;20.15;100.00
6899;BME280;3488;42.616;23.350;2023-06-24T02:57:48;64084.91;;;20.15;100.00
6899;BME280;3488;42.616;23.350;2023-06-24T03:00:16;64086.44;;;20.14;100.00
6899;BME280;3488;42.616;23.350;2023-06-24T03:02:46;64087.53;;;20.18;100.00
6899;BME280;3488;42.616;23.350;2023-06-24T03:05:14;64079.72;;;20.15;100.00
6899;BME280;3488;42.616;23.350;2023-06-24T03:07:42;64086.44;;;20.12;100.00
6899;BME280;3488;42.616;23.350;2023-06-24T03:10:10;64087.00;;;20.17;100.00
6899;BME280;3488;42.616;23.350;2023-06-24T03:12:38;64082.28;;;20.10;100.00
6899;BME280;3488;42.616;23.350;2023-06-24T03:15:06;64089.06;;;20.17;100.00
6899;BME280;3488;42.616;23.350;2023-06-24T03:17:34;64092.72;;;20.20;100.00
6899;BME280;3488;42.616;23.350;2023-06-24T03:20:02;64095.34;;;20.25;100.00
6899;BME280;3488;42.616;23.350;2023-06-24T03:22:30;64101.06;;;20.28;100.00
6899;BME280;3488;42.616;23.350;2023-06-24T03:24:57;64101.56;;;20.26;100.00
6899;BME280;3488;42.616;23.350;2023-06-24T03:27:24;64108.38;;;20.35;100.00
6899;BME280;3488;42.616;23.350;2023-06-24T03:29:52;64115.66;;;20.40;100.00
6899;BME280;3488;42.616;23.350;2023-06-24T03:32:20;64117.25;;;20.44;100.00
6899;BME280;3488;42.616;23.350;2023-06-24T03:34:47;64124.06;;;20.53;100.00
6899;BME280;3488;42.616;23.350;2023-06-24T03:37:14;64131.38;;;20.60;100.00
6899;BME280;3488;42.616;23.350;2023-06-24T03:39:41;64130.81;;;20.57;100.00
6899;BME280;3488;42.616;23.350;2023-06-24T03:42:08;64142.28;;;20.65;100.00
6899;BME280;3488;42.616;23.350;2023-06-24T03:44:35;64148.03;;;20.74;100.00
6899;BME280;3488;42.616;23.350;2023-06-24T03:47:04;64155.88;;;20.81;100.00
6899;BME280;3488;42.616;23.350;2023-06-24T03:49:31;64172.03;;;20.94;100.00
6899;BME280;3488;42.616;23.350;2023-06-24T03:51:58;64176.28;;;21.03;100.00
6899;BME280;3488;42.616;23.350;2023-06-24T03:54:25;64188.25;;;21.12;100.00
6899;BME280;3488;42.616;23.350;2023-06-24T03:56:52;64200.25;;;21.21;100.00
6899;BME280;3488;42.616;23.350;2023-06-24T03:59:19;64216.44;;;21.34;100.00
6899;BME280;3488;42.616;23.350;2023-06-24T04:01:45;64211.78;;;21.40;100.00
6899;BME280;3488;42.616;23.350;2023-06-24T04:04:14;64232.09;;;21.49;100.00
6899;BME280;3488;42.616;23.350;2023-06-24T04:06:41;64238.38;;;21.58;100.00
6899;BME280;3488;42.616;23.350;2023-06-24T04:09:08;64246.75;;;21.68;100.00
6899;BME280;3488;42.616;23.350;2023-06-24T04:11:35;64247.31;;;21.74;100.00
6899;BME280;3488;42.616;23.350;2023-06-24T04:14:03;64265.06;;;21.86;100.00
6899;BME280;3488;42.616;23.350;2023-06-24T04:16:32;64273.44;;;21.94;100.00
6899;BME280;3488;42.616;23.350;2023-06-24T04:18:59;64257.75;;;21.79;100.00
6899;BME280;3488;42.616;23.350;2023-06-24T04:21:28;64270.84;;;21.94;100.00
6899;BME280;3488;42.616;23.350;2023-06-24T04:23:55;64286.50;;;22.07;100.00
6899;BME280;3488;42.616;23.350;2023-06-24T04:26:22;64291.72;;;22.14;100.00
6899;BME280;3488;42.616;23.350;2023-06-24T04:28:49;64313.13;;;22.30;100.00
6899;BME280;3488;42.616;23.350;2023-06-24T04:31:16;64332.97;;;22.46;100.00
6899;BME280;3488;42.616;23.350;2023-06-24T04:33:43;64334.53;;;22.50;100.00
6899;BME280;3488;42.616;23.350;2023-06-24T04:36:10;64342.44;;;22.60;100.00
6899;BME280;3488;42.616;23.350;2023-06-24T04:38:38;64354.50;;;22.77;100.00
6899;BME280;3488;42.616;23.350;2023-06-24T04:41:05;64376.44;;;22.93;100.00
6899;BME280;3488;42.616;23.350;2023-06-24T04:43:32;64386.34;;;23.03;100.00
6899;BME280;3488;42.616;23.350;2023-06-24T04:46:01;64395.78;;;23.14;100.00
6899;BME280;3488;42.616;23.350;2023-06-24T04:48:28;64364.94;;;22.84;100.00
6899;BME280;3488;42.616;23.350;2023-06-24T04:50:55;64358.66;;;22.76;100.00
6899;BME280;3488;42.616;23.350;2023-06-24T04:53:23;64370.66;;;22.85;100.00
6899;BME280;3488;42.616;23.350;2023-06-24T04:55:52;64373.25;;;22.85;100.00
6899;BME280;3488;42.616;23.350;2023-06-24T04:58:19;64378.00;;;22.95;100.00
6899;BME280;3488;42.616;23.350;2023-06-24T05:00:46;64383.75;;;23.03;100.00
6899;BME280;3488;42.616;23.350;2023-06-24T05:03:13;64402.53;;;23.11;100.00
6899;BME280;3488;42.616;23.350;2023-06-24T05:05:39;64387.41;;;23.04;100.00
6899;BME280;3488;42.616;23.350;2023-06-24T05:08:07;64390.00;;;23.04;100.00
6899;BME280;3488;42.616;23.350;2023-06-24T05:10:35;64393.16;;;23.09;100.00
6899;BME280;3488;42.616;23.350;2023-06-24T05:13:04;64394.69;;;23.06;100.00
6899;BME280;3488;42.616;23.350;2023-06-24T05:15:31;64396.81;;;23.10;100.00
6899;BME280;3488;42.616;23.350;2023-06-24T05:17:58;64401.50;;;23.15;100.00
6899;BME280;3488;42.616;23.350;2023-06-24T05:20:25;64413.53;;;23.26;100.00
6899;BME280;3488;42.616;23.350;2023-06-24T05:22:54;64390.03;;;23.09;100.00
6899;BME280;3488;42.616;23.350;2023-06-24T05:25:21;64400.50;;;23.19;100.00
6899;BME280;3488;42.616;23.350;2023-06-24T05:27:49;64403.63;;;23.19;100.00
6899;BME280;3488;42.616;23.350;2023-06-24T05:30:17;64427.72;;;23.45;100.00
6899;BME280;3488;42.616;23.350;2023-06-24T05:32:44;64440.25;;;23.54;100.00
6899;BME280;3488;42.616;23.350;2023-06-24T05:35:12;64442.88;;;23.59;100.00
6899;BME280;3488;42.616;23.350;2023-06-24T05:37:39;64470.56;;;23.76;100.00
6899;BME280;3488;42.616;23.350;2023-06-24T05:40:07;64482.63;;;23.95;100.00
6899;BME280;3488;42.616;23.350;2023-06-24T05:42:35;64465.38;;;23.81;100.00
6899;BME280;3488;42.616;23.350;2023-06-24T05:45:06;64474.75;;;23.82;100.00
6899;BME280;3488;42.616;23.350;2023-06-24T05:47:38;64495.19;;;24.05;100.00
6899;BME280;3488;42.616;23.350;2023-06-24T05:50:06;64493.13;;;24.05;99.21
6899;BME280;3488;42.616;23.350;2023-06-24T05:52:33;64502.53;;;24.14;98.48
6899;BME280;3488;42.616;23.350;2023-06-24T05:55:00;64530.78;;;24.39;95.86
6899;BME280;3488;42.616;23.350;2023-06-24T05:57:29;64525.56;;;24.36;92.88
6899;BME280;3488;42.616;23.350;2023-06-24T06:00:01;64528.19;;;24.39;94.13
6899;BME280;3488;42.616;23.350;2023-06-24T06:02:28;64551.22;;;24.58;92.79
6899;BME280;3488;42.616;23.350;2023-06-24T06:04:59;64540.75;;;24.51;92.01
6899;BME280;3488;42.616;23.350;2023-06-24T06:07:27;64539.72;;;24.52;92.82
6899;BME280;3488;42.616;23.350;2023-06-24T06:09:54;64536.53;;;24.44;93.27
6899;BME280;3488;42.616;23.350;2023-06-24T06:12:21;64533.38;;;24.39;92.10
6899;BME280;3488;42.616;23.350;2023-06-24T06:14:49;64549.13;;;24.59;90.43
6899;BME280;3488;42.616;23.350;2023-06-24T06:17:19;64545.97;;;24.56;92.76
6899;BME280;3488;42.616;23.350;2023-06-24T06:19:46;64581.09;;;24.89;91.04
6899;BME280;3488;42.616;23.350;2023-06-24T06:22:14;64597.84;;;25.05;90.36
6899;BME280;3488;42.616;23.350;2023-06-24T06:24:41;64621.91;;;25.24;87.63
6899;BME280;3488;42.616;23.350;2023-06-24T06:27:09;64620.38;;;25.25;87.06
6899;BME280;3488;42.616;23.350;2023-06-24T06:29:37;64618.78;;;25.23;84.43
6899;BME280;3488;42.616;23.350;2023-06-24T06:32:04;64599.44;;;25.07;88.92
6899;BME280;3488;42.616;23.350;2023-06-24T06:34:32;64588.44;;;24.99;87.52
6899;BME280;3488;42.616;23.350;2023-06-24T06:36:59;64590.00;;;25.00;84.87
6899;BME280;3488;42.616;23.350;2023-06-24T06:39:28;64583.19;;;24.91;88.03
6899;BME280;3488;42.616;23.350;2023-06-24T06:41:55;64593.13;;;25.01;89.72
6899;BME280;3488;42.616;23.350;2023-06-24T06:44:22;64582.66;;;24.91;87.46
6899;BME280;3488;42.616;23.350;2023-06-24T06:46:49;64600.47;;;25.08;86.32
6899;BME280;3488;42.616;23.350;2023-06-24T06:49:17;64601.53;;;25.09;87.08
6899;BME280;3488;42.616;23.350;2023-06-24T06:51:43;64618.81;;;25.26;83.39
6899;BME280;3488;42.616;23.350;2023-06-24T06:54:10;64626.66;;;25.31;81.20
6899;BME280;3488;42.616;23.350;2023-06-24T06:56:39;64598.38;;;25.06;83.87
6899;BME280;3488;42.616;23.350;2023-06-24T06:59:06;64560.69;;;24.72;86.43
6899;BME280;3488;42.616;23.350;2023-06-24T07:01:33;64592.63;;;25.00;84.84
6899;BME280;3488;42.616;23.350;2023-06-24T07:04:00;64602.03;;;25.09;82.88
6899;BME280;3488;42.616;23.350;2023-06-24T07:06:27;64597.84;;;25.03;83.65
6899;BME280;3488;42.616;23.350;2023-06-24T07:08:54;64613.03;;;25.18;83.98
6899;BME280;3488;42.616;23.350;2023-06-24T07:11:21;64606.75;;;25.14;84.69
6899;BME280;3488;42.616;23.350;2023-06-24T07:13:51;64617.75;;;25.25;83.34
6899;BME280;3488;42.616;23.350;2023-06-24T07:16:18;64613.03;;;25.20;83.91
6899;BME280;3488;42.616;23.350;2023-06-24T07:18:45;64610.44;;;25.23;84.36
6899;BME280;3488;42.616;23.350;2023-06-24T07:21:12;64629.28;;;25.36;83.33
6899;BME280;3488;42.616;23.350;2023-06-24T07:23:39;64659.16;;;25.62;83.72
6899;BME280;3488;42.616;23.350;2023-06-24T07:26:07;64670.69;;;25.73;81.94
6899;BME280;3488;42.616;23.350;2023-06-24T07:28:36;64681.19;;;25.88;83.29
6899;BME280;3488;42.616;23.350;2023-06-24T07:31:04;64696.91;;;26.03;81.54
6899;BME280;3488;42.616;23.350;2023-06-24T07:33:32;64714.75;;;26.17;77.03
6899;BME280;3488;42.616;23.350;2023-06-24T07:35:59;64712.66;;;26.20;76.72
6899;BME280;3488;42.616;23.350;2023-06-24T07:38:28;64722.59;;;26.28;77.67
6899;BME280;3488;42.616;23.350;2023-06-24T07:40:55;64721.00;;;26.23;73.74
6899;BME280;3488;42.616;23.350;2023-06-24T07:43:23;64743.03;;;26.45;74.38
6899;BME280;3488;42.616;23.350;2023-06-24T07:45:50;64756.16;;;26.60;75.14
6899;BME280;3488;42.616;23.350;2023-06-24T07:48:18;64756.13;;;26.55;75.52
6899;BME280;3488;42.616;23.350;2023-06-24T07:50:46;64754.56;;;26.51;74.92
6899;BME280;3488;42.616;23.350;2023-06-24T07:53:14;64747.22;;;26.44;74.85
6899;BME280;3488;42.616;23.350;2023-06-24T07:55:42;64759.84;;;26.66;75.19
6899;BME280;3488;42.616;23.350;2023-06-24T07:58:09;64779.78;;;26.82;75.07
6899;BME280;3488;42.616;23.350;2023-06-24T08:00:36;64796.53;;;26.96;71.88
6899;BME280;3488;42.616;23.350;2023-06-24T08:03:04;64785.53;;;26.83;76.63
6899;BME280;3488;42.616;23.350;2023-06-24T08:05:33;64804.94;;;27.04;71.01
6899;BME280;3488;42.616;23.350;2023-06-24T08:08:00;64778.72;;;26.79;71.07
6899;BME280;3488;42.616;23.350;2023-06-24T08:10:27;64794.97;;;26.92;68.48
6899;BME280;3488;42.616;23.350;2023-06-24T08:12:54;64787.13;;;26.87;68.98
6899;BME280;3488;42.616;23.350;2023-06-24T08:15:21;64812.81;;;27.14;72.71
6899;BME280;3488;42.616;23.350;2023-06-24T08:17:51;64843.25;;;27.38;72.80
6899;BME280;3488;42.616;23.350;2023-06-24T08:20:19;64868.44;;;27.65;69.52
6899;BME280;3488;42.616;23.350;2023-06-24T08:22:50;64891.00;;;27.89;68.76
6899;BME280;3488;42.616;23.350;2023-06-24T08:25:17;64895.22;;;27.93;64.18
6899;BME280;3488;42.616;23.350;2023-06-24T08:27:45;64899.44;;;27.97;65.03
6899;BME280;3488;42.616;23.350;2023-06-24T08:30:13;64929.88;;;28.21;65.76
6899;BME280;3488;42.616;23.350;2023-06-24T08:32:41;64933.03;;;28.26;64.67
6899;BME280;3488;42.616;23.350;2023-06-24T08:35:09;64952.44;;;28.48;65.08
6899;BME280;3488;42.616;23.350;2023-06-24T08:37:36;64975.03;;;28.67;62.42
6899;BME280;3488;42.616;23.350;2023-06-24T08:40:07;64988.19;;;28.77;60.82
6899;BME280;3488;42.616;23.350;2023-06-24T08:42:34;64965.59;;;28.63;64.29
6899;BME280;3488;42.616;23.350;2023-06-24T08:45:02;64957.72;;;28.53;66.69
6899;BME280;3488;42.616;23.350;2023-06-24T08:47:30;64979.75;;;28.74;66.94
6899;BME280;3488;42.616;23.350;2023-06-24T08:50:02;64987.13;;;28.78;59.64
6899;BME280;3488;42.616;23.350;2023-06-24T08:52:32;64976.09;;;28.70;58.70
6899;BME280;3488;42.616;23.350;2023-06-24T08:55:01;64979.22;;;28.66;62.64
6899;BME280;3488;42.616;23.350;2023-06-24T08:57:30;64983.44;;;28.70;61.65
6899;BME280;3488;42.616;23.350;2023-06-24T08:59:57;65001.81;;;28.95;62.65
6899;BME280;3488;42.616;23.350;2023-06-24T09:02:24;65011.28;;;29.04;63.22
6899;BME280;3488;42.616;23.350;2023-06-24T09:04:51;65020.22;;;29.10;59.14
6899;BME280;3488;42.616;23.350;2023-06-24T09:07:28;65016.53;;;29.09;58.70
6899;BME280;3488;42.616;23.350;2023-06-24T09:09:55;65038.63;;;29.25;61.21
6899;BME280;3488;42.616;23.350;2023-06-24T09:12:24;65034.41;;;29.21;58.45
6899;BME280;3488;42.616;23.350;2023-06-24T09:14:53;65050.16;;;29.41;60.50
6899;BME280;3488;42.616;23.350;2023-06-24T09:17:20;65069.59;;;29.54;56.73
6899;BME280;3488;42.616;23.350;2023-06-24T09:19:48;65073.28;;;29.58;58.85
6899;BME280;3488;42.616;23.350;2023-06-24T09:22:15;65090.13;;;29.77;56.13
6899;BME280;3488;42.616;23.350;2023-06-24T09:24:44;65108.00;;;29.91;57.31
6899;BME280;3488;42.616;23.350;2023-06-24T09:27:13;65093.81;;;29.75;52.39
6899;BME280;3488;42.616;23.350;2023-06-24T09:29:41;65059.63;;;29.47;53.24
6899;BME280;3488;42.616;23.350;2023-06-24T09:32:11;65052.28;;;29.38;54.38
6899;BME280;3488;42.616;23.350;2023-06-24T09:34:39;65049.13;;;29.32;54.21
6899;BME280;3488;42.616;23.350;2023-06-24T09:37:06;65064.38;;;29.52;55.54
6899;BME280;3488;42.616;23.350;2023-06-24T09:39:37;65085.41;;;29.67;56.88
6899;BME280;3488;42.616;23.350;2023-06-24T09:42:06;65088.03;;;29.77;56.25
6899;BME280;3488;42.616;23.350;2023-06-24T09:44:33;65060.16;;;29.48;53.26
6899;BME280;3488;42.616;23.350;2023-06-24T09:47:01;64989.22;;;28.80;56.13
6899;BME280;3488;42.616;23.350;2023-06-24T09:49:30;65007.09;;;28.97;54.92
6899;BME280;3488;42.616;23.350;2023-06-24T09:51:58;65013.91;;;29.06;56.44
6899;BME280;3488;42.616;23.350;2023-06-24T09:54:27;65032.81;;;29.17;61.88
6899;BME280;3488;42.616;23.350;2023-06-24T09:56:58;65036.50;;;29.25;58.01
6899;BME280;3488;42.616;23.350;2023-06-24T09:59:26;65065.41;;;29.50;57.72
6899;BME280;3488;42.616;23.350;2023-06-24T10:01:55;65081.19;;;29.63;53.66
6899;BME280;3488;42.616;23.350;2023-06-24T10:04:23;65081.72;;;29.69;53.57
6899;BME280;3488;42.616;23.350;2023-06-24T10:06:54;65103.28;;;29.92;55.31
6899;BME280;3488;42.616;23.350;2023-06-24T10:09:21;65122.72;;;30.13;53.49
6899;BME280;3488;42.616;23.350;2023-06-24T10:11:49;65137.97;;;30.22;54.68
6899;BME280;3488;42.616;23.350;2023-06-24T10:14:16;65143.75;;;30.33;54.82
6899;BME280;3488;42.616;23.350;2023-06-24T10:16:44;65164.78;;;30.48;53.34
6899;BME280;3488;42.616;23.350;2023-06-24T10:19:19;65185.31;;;30.68;53.83
6899;BME280;3488;42.616;23.350;2023-06-24T10:21:50;65213.19;;;30.94;53.13
6899;BME280;3488;42.616;23.350;2023-06-24T10:24:34;65235.81;;;31.13;51.09
6899;BME280;3488;42.616;23.350;2023-06-24T10:27:03;65221.59;;;31.00;49.50
6899;BME280;3488;42.616;23.350;2023-06-24T10:29:31;65205.84;;;30.82;49.90
6899;BME280;3488;42.616;23.350;2023-06-24T10:32:02;65176.38;;;30.59;52.52
6899;BME280;3488;42.616;23.350;2023-06-24T10:34:33;65197.41;;;30.79;52.50
6899;BME280;3488;42.616;23.350;2023-06-24T10:37:01;65200.59;;;30.82;49.12
6899;BME280;3488;42.616;23.350;2023-06-24T10:39:39;65202.66;;;30.84;50.31
6899;BME280;3488;42.616;23.350;2023-06-24T10:42:26;65210.03;;;30.94;48.64
6899;BME280;3488;42.616;23.350;2023-06-24T10:44:54;65196.88;;;30.79;50.30
6899;BME280;3488;42.616;23.350;2023-06-24T10:47:22;65167.41;;;30.48;47.41
6899;BME280;3488;42.616;23.350;2023-06-24T10:49:50;65156.38;;;30.40;47.25
6899;BME280;3488;42.616;23.350;2023-06-24T10:52:19;65157.97;;;30.36;47.45
6899;BME280;3488;42.616;23.350;2023-06-24T10:54:49;65163.22;;;30.46;49.34
6899;BME280;3488;42.616;23.350;2023-06-24T10:57:21;65151.13;;;30.35;50.22
6899;BME280;3488;42.616;23.350;2023-06-24T10:59:50;65188.97;;;30.69;52.37
6899;BME280;3488;42.616;23.350;2023-06-24T11:02:18;65220.56;;;31.01;51.17
6899;BME280;3488;42.616;23.350;2023-06-24T11:04:47;65248.44;;;31.30;49.05
6899;BME280;3488;42.616;23.350;2023-06-24T11:07:22;65246.84;;;31.24;46.70
6899;BME280;3488;42.616;23.350;2023-06-24T11:09:56;65251.59;;;31.31;47.28
6899;BME280;3488;42.616;23.350;2023-06-24T11:12:30;65268.97;;;31.47;47.31
6899;BME280;3488;42.616;23.350;2023-06-24T11:14:59;65300.03;;;31.77;48.65
6899;BME280;3488;42.616;23.350;2023-06-24T11:17:33;65315.31;;;31.92;43.92
6899;BME280;3488;42.616;23.350;2023-06-24T11:20:06;65318.47;;;31.92;45.11
6899;BME280;3488;42.616;23.350;2023-06-24T11:22:33;65344.28;;;32.17;42.40
6899;BME280;3488;42.616;23.350;2023-06-24T11:25:03;65343.22;;;32.13;45.34
6899;BME280;3488;42.616;23.350;2023-06-24T11:27:31;65334.78;;;32.13;43.32
6899;BME280;3488;42.616;23.350;2023-06-24T11:30:00;65345.31;;;32.23;41.11
6899;BME280;3488;42.616;23.350;2023-06-24T11:32:35;65332.66;;;32.11;42.19
6899;BME280;3488;42.616;23.350;2023-06-24T11:35:03;65325.31;;;32.01;42.74
6899;BME280;3488;42.616;23.350;2023-06-24T11:37:31;65330.03;;;32.03;43.93
6899;BME280;3488;42.616;23.350;2023-06-24T11:40:08;65333.72;;;32.09;43.35
6899;BME280;3488;42.616;23.350;2023-06-24T11:42:36;65339.00;;;32.17;43.86
6899;BME280;3488;42.616;23.350;2023-06-24T11:45:05;65359.53;;;32.31;43.99
6899;BME280;3488;42.616;23.350;2023-06-24T11:47:32;65382.72;;;32.53;44.89
6899;BME280;3488;42.616;23.350;2023-06-24T11:50:01;65390.63;;;32.61;45.98
6899;BME280;3488;42.616;23.350;2023-06-24T11:52:42;65449.09;;;33.14;45.21
6899;BME280;3488;42.616;23.350;2023-06-24T11:55:16;65491.78;;;33.60;42.62
6899;BME280;3488;42.616;23.350;2023-06-24T11:57:51;65528.16;;;33.95;42.69
6899;BME280;3488;42.616;23.350;2023-06-24T12:00:22;65587.75;;;34.51;41.40
6899;BME280;3488;42.616;23.350;2023-06-24T12:02:53;65588.25;;;34.54;40.24
6899;BME280;3488;42.616;23.350;2023-06-24T12:05:24;65657.88;;;35.21;40.24
6899;BME280;3488;42.616;23.350;2023-06-24T12:07:58;65714.91;;;35.72;39.21
6899;BME280;3488;42.616;23.350;2023-06-24T12:10:28;65690.06;;;35.54;37.23
6899;BME280;3488;42.616;23.350;2023-06-24T12:12:56;65677.94;;;35.40;37.51
6899;BME280;3488;42.616;23.350;2023-06-24T12:15:24;65672.16;;;35.29;37.62
6899;BME280;3488;42.616;23.350;2023-06-24T12:17:51;65657.38;;;35.15;38.65
6899;BME280;3488;42.616;23.350;2023-06-24T12:20:18;65628.88;;;34.90;37.31
6899;BME280;3488;42.616;23.350;2023-06-24T12:22:46;65576.13;;;34.40;40.94
6899;BME280;3488;42.616;23.350;2023-06-24T12:25:13;65525.50;;;33.89;41.08
6899;BME280;3488;42.616;23.350;2023-06-24T12:27:43;65521.31;;;33.83;41.68
6899;BME280;3488;42.616;23.350;2023-06-24T12:30:11;65519.72;;;33.84;41.55
6899;BME280;3488;42.616;23.350;2023-06-24T12:32:39;65510.75;;;33.75;41.44
6899;BME280;3488;42.616;23.350;2023-06-24T12:35:07;65487.56;;;33.53;42.14
6899;BME280;3488;42.616;23.350;2023-06-24T12:37:36;65403.78;;;32.73;45.80
6899;BME280;3488;42.616;23.350;2023-06-24T12:40:04;65362.16;;;32.31;47.40
6899;BME280;3488;42.616;23.350;2023-06-24T12:42:31;65304.75;;;31.82;49.88
6899;BME280;3488;42.616;23.350;2023-06-24T12:45:00;65261.63;;;31.40;49.02
6899;BME280;3488;42.616;23.350;2023-06-24T12:47:27;65200.03;;;30.77;49.25
6899;BME280;3488;42.616;23.350;2023-06-24T12:49:55;65119.56;;;30.07;50.56
6899;BME280;3488;42.616;23.350;2023-06-24T12:52:22;65090.13;;;29.74;51.05
6899;BME280;3488;42.616;23.350;2023-06-24T12:54:48;65088.03;;;29.75;51.18
6899;BME280;3488;42.616;23.350;2023-06-24T12:57:16;65091.19;;;29.75;52.07
6899;BME280;3488;42.616;23.350;2023-06-24T12:59:43;65069.09;;;29.54;52.97
6899;BME280;3488;42.616;23.350;2023-06-24T13:02:11;65028.09;;;29.17;55.78
6899;BME280;3488;42.616;23.350;2023-06-24T13:04:38;65022.34;;;29.09;57.02
6899;BME280;3488;42.616;23.350;2023-06-24T13:07:06;65018.13;;;29.08;57.60
6899;BME280;3488;42.616;23.350;2023-06-24T13:09:35;65028.63;;;29.18;57.55
6899;BME280;3488;42.616;23.350;2023-06-24T13:12:02;65037.56;;;29.24;58.33
6899;BME280;3488;42.616;23.350;2023-06-24T13:14:30;65038.59;;;29.22;58.76
6899;BME280;3488;42.616;23.350;2023-06-24T13:16:57;65038.59;;;29.22;60.60
6899;BME280;3488;42.616;23.350;2023-06-24T13:19:25;65010.22;;;29.00;62.66